sensor_id;sensor_type;location;lat;lon;timestamp;P1;durP1;ratioP1;P2;durP2;ratioP2
55539;SDS011;41384;51.418;7.286;2022-12-18T00:01:51;4.43;;;2.45;;
55539;SDS011;41384;51.418;7.286;2022-12-18T00:04:21;5.05;;;3.28;;
55539;SDS011;41384;51.418;7.286;2022-12-18T00:06:47;4.75;;;2.47;;
55539;SDS011;41384;51.418;7.286;2022-12-18T00:09:13;4.20;;;2.42;;
55539;SDS011;41384;51.418;7.286;2022-12-18T00:11:38;3.53;;;2.67;;
55539;SDS011;41384;51.418;7.286;2022-12-18T00:14:03;4.00;;;2.33;;
55539;SDS011;41384;51.418;7.286;2022-12-18T00:16:29;6.65;;;3.17;;
55539;SDS011;41384;51.418;7.286;2022-12-18T00:18:57;3.55;;;2.70;;
55539;SDS011;41384;51.418;7.286;2022-12-18T00:21:25;4.57;;;2.78;;
55539;SDS011;41384;51.418;7.286;2022-12-18T00:23:52;3.17;;;2.45;;
55539;SDS011;41384;51.418;7.286;2022-12-18T00:26:19;6.32;;;3.50;;
55539;SDS011;41384;51.418;7.286;2022-12-18T00:28:46;6.15;;;2.80;;
55539;SDS011;41384;51.418;7.286;2022-12-18T00:31:14;4.18;;;3.05;;
55539;SDS011;41384;51.418;7.286;2022-12-18T00:33:44;4.20;;;2.20;;
55539;SDS011;41384;51.418;7.286;2022-12-18T00:36:11;6.25;;;3.10;;
55539;SDS011;41384;51.418;7.286;2022-12-18T00:38:38;4.03;;;2.72;;
55539;SDS011;41384;51.418;7.286;2022-12-18T00:41:04;3.92;;;2.72;;
55539;SDS011;41384;51.418;7.286;2022-12-18T00:43:30;2.85;;;2.33;;
55539;SDS011;41384;51.418;7.286;2022-12-18T00:45:55;5.15;;;2.83;;
55539;SDS011;41384;51.418;7.286;2022-12-18T00:48:21;4.05;;;2.70;;
55539;SDS011;41384;51.418;7.286;2022-12-18T00:50:47;4.43;;;2.53;;
55539;SDS011;41384;51.418;7.286;2022-12-18T00:53:14;4.30;;;2.95;;
55539;SDS011;41384;51.418;7.286;2022-12-18T00:55:39;5.78;;;2.90;;
55539;SDS011;41384;51.418;7.286;2022-12-18T00:58:06;4.20;;;2.63;;
55539;SDS011;41384;51.418;7.286;2022-12-18T01:00:33;3.90;;;2.55;;
55539;SDS011;41384;51.418;7.286;2022-12-18T01:02:58;4.60;;;2.72;;
55539;SDS011;41384;51.418;7.286;2022-12-18T01:05:23;4.70;;;2.55;;
55539;SDS011;41384;51.418;7.286;2022-12-18T01:07:50;4.05;;;2.20;;
55539;SDS011;41384;51.418;7.286;2022-12-18T01:10:15;6.88;;;3.08;;
55539;SDS011;41384;51.418;7.286;2022-12-18T01:12:40;4.88;;;2.75;;
55539;SDS011;41384;51.418;7.286;2022-12-18T01:15:06;4.00;;;2.47;;
55539;SDS011;41384;51.418;7.286;2022-12-18T01:17:32;6.78;;;2.83;;
55539;SDS011;41384;51.418;7.286;2022-12-18T01:19:57;5.80;;;2.70;;
55539;SDS011;41384;51.418;7.286;2022-12-18T01:22:23;5.03;;;2.88;;
55539;SDS011;41384;51.418;7.286;2022-12-18T01:24:48;6.97;;;3.08;;
55539;SDS011;41384;51.418;7.286;2022-12-18T01:27:13;5.35;;;2.90;;
55539;SDS011;41384;51.418;7.286;2022-12-18T01:29:38;4.90;;;2.58;;
55539;SDS011;41384;51.418;7.286;2022-12-18T01:32:04;5.25;;;3.35;;
55539;SDS011;41384;51.418;7.286;2022-12-18T01:34:29;4.35;;;2.42;;
55539;SDS011;41384;51.418;7.286;2022-12-18T01:36:54;5.55;;;2.40;;
55539;SDS011;41384;51.418;7.286;2022-12-18T01:39:20;5.55;;;2.58;;
55539;SDS011;41384;51.418;7.286;2022-12-18T01:41:45;7.28;;;3.58;;
55539;SDS011;41384;51.418;7.286;2022-12-18T01:49:50;6.53;;;2.95;;
55539;SDS011;41384;51.418;7.286;2022-12-18T01:52:15;3.85;;;2.63;;
55539;SDS011;41384;51.418;7.286;2022-12-18T01:54:42;3.83;;;2.30;;
55539;SDS011;41384;51.418;7.286;2022-12-18T01:57:08;4.40;;;2.22;;
55539;SDS011;41384;51.418;7.286;2022-12-18T01:59:34;5.50;;;2.67;;
55539;SDS011;41384;51.418;7.286;2022-12-18T02:02:01;4.53;;;2.88;;
55539;SDS011;41384;51.418;7.286;2022-12-18T02:04:27;4.65;;;2.70;;
55539;SDS011;41384;51.418;7.286;2022-12-18T02:06:55;4.70;;;2.67;;
55539;SDS011;41384;51.418;7.286;2022-12-18T02:09:37;5.60;;;3.03;;
55539;SDS011;41384;51.418;7.286;2022-12-18T02:14:46;4.10;;;2.90;;
55539;SDS011;41384;51.418;7.286;2022-12-18T02:17:37;5.40;;;2.97;;
55539;SDS011;41384;51.418;7.286;2022-12-18T02:20:31;3.97;;;2.75;;
55539;SDS011;41384;51.418;7.286;2022-12-18T02:23:06;4.43;;;2.80;;
55539;SDS011;41384;51.418;7.286;2022-12-18T02:28:23;4.75;;;3.03;;
55539;SDS011;41384;51.418;7.286;2022-12-18T02:30:53;4.32;;;2.58;;
55539;SDS011;41384;51.418;7.286;2022-12-18T02:33:22;7.00;;;2.90;;
55539;SDS011;41384;51.418;7.286;2022-12-18T02:35:50;5.53;;;2.97;;
55539;SDS011;41384;51.418;7.286;2022-12-18T02:38:17;5.65;;;3.33;;
55539;SDS011;41384;51.418;7.286;2022-12-18T02:40:42;4.60;;;2.92;;
55539;SDS011;41384;51.418;7.286;2022-12-18T02:43:09;5.50;;;2.80;;
55539;SDS011;41384;51.418;7.286;2022-12-18T02:45:45;3.45;;;2.25;;
55539;SDS011;41384;51.418;7.286;2022-12-18T02:48:13;3.78;;;2.90;;
55539;SDS011;41384;51.418;7.286;2022-12-18T02:50:40;5.45;;;3.22;;
55539;SDS011;41384;51.418;7.286;2022-12-18T02:55:55;7.63;;;3.22;;
55539;SDS011;41384;51.418;7.286;2022-12-18T03:01:09;4.88;;;2.88;;
55539;SDS011;41384;51.418;7.286;2022-12-18T03:06:28;2.72;;;2.03;;
55539;SDS011;41384;51.418;7.286;2022-12-18T03:09:02;6.07;;;2.83;;
55539;SDS011;41384;51.418;7.286;2022-12-18T03:11:33;5.47;;;3.97;;
55539;SDS011;41384;51.418;7.286;2022-12-18T03:14:20;4.47;;;2.65;;
55539;SDS011;41384;51.418;7.286;2022-12-18T03:16:48;4.28;;;2.60;;
55539;SDS011;41384;51.418;7.286;2022-12-18T03:19:17;2.45;;;2.25;;
55539;SDS011;41384;51.418;7.286;2022-12-18T03:21:45;4.63;;;2.72;;
55539;SDS011;41384;51.418;7.286;2022-12-18T03:24:14;5.47;;;2.72;;
55539;SDS011;41384;51.418;7.286;2022-12-18T03:26:43;4.38;;;2.90;;
55539;SDS011;41384;51.418;7.286;2022-12-18T03:29:54;4.90;;;2.92;;
55539;SDS011;41384;51.418;7.286;2022-12-18T03:32:12;3.13;;;2.72;;
55539;SDS011;41384;51.418;7.286;2022-12-18T03:34:44;4.47;;;2.63;;
55539;SDS011;41384;51.418;7.286;2022-12-18T03:37:14;4.18;;;2.70;;
55539;SDS011;41384;51.418;7.286;2022-12-18T03:39:39;5.35;;;3.03;;
55539;SDS011;41384;51.418;7.286;2022-12-18T03:42:06;3.75;;;2.60;;
55539;SDS011;41384;51.418;7.286;2022-12-18T03:52:57;4.13;;;2.55;;
55539;SDS011;41384;51.418;7.286;2022-12-18T03:55:34;3.72;;;2.25;;
55539;SDS011;41384;51.418;7.286;2022-12-18T03:58:01;2.85;;;2.08;;
55539;SDS011;41384;51.418;7.286;2022-12-18T04:00:28;2.70;;;1.75;;
55539;SDS011;41384;51.418;7.286;2022-12-18T04:02:55;3.42;;;2.00;;
55539;SDS011;41384;51.418;7.286;2022-12-18T04:05:25;5.28;;;2.50;;
55539;SDS011;41384;51.418;7.286;2022-12-18T04:07:52;3.95;;;2.17;;
55539;SDS011;41384;51.418;7.286;2022-12-18T04:10:19;3.63;;;2.08;;
55539;SDS011;41384;51.418;7.286;2022-12-18T04:12:44;2.97;;;2.67;;
55539;SDS011;41384;51.418;7.286;2022-12-18T04:15:10;3.30;;;2.42;;
55539;SDS011;41384;51.418;7.286;2022-12-18T04:17:37;3.92;;;2.28;;
55539;SDS011;41384;51.418;7.286;2022-12-18T04:20:04;4.47;;;2.45;;
55539;SDS011;41384;51.418;7.286;2022-12-18T04:22:29;2.85;;;2.05;;
55539;SDS011;41384;51.418;7.286;2022-12-18T04:24:55;2.80;;;2.15;;
55539;SDS011;41384;51.418;7.286;2022-12-18T04:27:20;4.97;;;2.30;;
55539;SDS011;41384;51.418;7.286;2022-12-18T04:29:45;3.30;;;2.00;;
55539;SDS011;41384;51.418;7.286;2022-12-18T04:32:11;3.63;;;2.00;;
55539;SDS011;41384;51.418;7.286;2022-12-18T04:34:36;2.95;;;1.60;;
55539;SDS011;41384;51.418;7.286;2022-12-18T04:37:01;4.35;;;2.00;;
55539;SDS011;41384;51.418;7.286;2022-12-18T04:39:26;4.85;;;1.90;;
55539;SDS011;41384;51.418;7.286;2022-12-18T04:41:52;4.05;;;2.35;;
55539;SDS011;41384;51.418;7.286;2022-12-18T04:44:17;6.25;;;2.00;;
55539;SDS011;41384;51.418;7.286;2022-12-18T04:46:42;3.03;;;2.17;;
55539;SDS011;41384;51.418;7.286;2022-12-18T04:49:07;2.85;;;2.08;;
55539;SDS011;41384;51.418;7.286;2022-12-18T04:51:35;2.40;;;1.67;;
55539;SDS011;41384;51.418;7.286;2022-12-18T04:54:00;2.10;;;1.90;;
55539;SDS011;41384;51.418;7.286;2022-12-18T04:56:25;2.25;;;1.52;;
55539;SDS011;41384;51.418;7.286;2022-12-18T04:58:51;3.33;;;2.00;;
55539;SDS011;41384;51.418;7.286;2022-12-18T05:01:17;3.85;;;2.15;;
55539;SDS011;41384;51.418;7.286;2022-12-18T05:03:43;3.45;;;2.17;;
55539;SDS011;41384;51.418;7.286;2022-12-18T05:06:08;4.07;;;2.05;;
55539;SDS011;41384;51.418;7.286;2022-12-18T05:08:34;2.83;;;2.00;;
55539;SDS011;41384;51.418;7.286;2022-12-18T05:11:03;2.70;;;2.00;;
55539;SDS011;41384;51.418;7.286;2022-12-18T05:13:31;4.00;;;2.13;;
55539;SDS011;41384;51.418;7.286;2022-12-18T05:15:57;2.97;;;1.95;;
55539;SDS011;41384;51.418;7.286;2022-12-18T05:18:22;3.70;;;2.42;;
55539;SDS011;41384;51.418;7.286;2022-12-18T05:20:49;3.03;;;1.98;;
55539;SDS011;41384;51.418;7.286;2022-12-18T05:23:15;4.30;;;1.92;;
55539;SDS011;41384;51.418;7.286;2022-12-18T05:25:40;5.07;;;2.13;;
55539;SDS011;41384;51.418;7.286;2022-12-18T05:28:05;2.35;;;2.08;;
55539;SDS011;41384;51.418;7.286;2022-12-18T05:30:30;3.88;;;1.90;;
55539;SDS011;41384;51.418;7.286;2022-12-18T05:32:56;3.35;;;2.00;;
55539;SDS011;41384;51.418;7.286;2022-12-18T05:35:21;4.72;;;2.45;;
55539;SDS011;41384;51.418;7.286;2022-12-18T05:37:46;3.55;;;2.00;;
55539;SDS011;41384;51.418;7.286;2022-12-18T05:40:12;2.75;;;1.95;;
55539;SDS011;41384;51.418;7.286;2022-12-18T05:42:37;3.45;;;2.13;;
55539;SDS011;41384;51.418;7.286;2022-12-18T05:45:02;4.18;;;2.25;;
55539;SDS011;41384;51.418;7.286;2022-12-18T05:47:28;3.10;;;2.25;;
55539;SDS011;41384;51.418;7.286;2022-12-18T05:49:54;3.05;;;2.03;;
55539;SDS011;41384;51.418;7.286;2022-12-18T05:52:19;3.22;;;1.80;;
55539;SDS011;41384;51.418;7.286;2022-12-18T05:54:44;2.50;;;1.77;;
55539;SDS011;41384;51.418;7.286;2022-12-18T05:57:10;3.70;;;2.17;;
55539;SDS011;41384;51.418;7.286;2022-12-18T05:59:35;2.40;;;1.48;;
55539;SDS011;41384;51.418;7.286;2022-12-18T06:02:00;2.72;;;1.73;;
55539;SDS011;41384;51.418;7.286;2022-12-18T06:04:26;4.30;;;2.10;;
55539;SDS011;41384;51.418;7.286;2022-12-18T06:06:53;3.60;;;1.85;;
55539;SDS011;41384;51.418;7.286;2022-12-18T06:09:18;5.43;;;2.03;;
55539;SDS011;41384;51.418;7.286;2022-12-18T06:11:44;2.63;;;1.65;;
55539;SDS011;41384;51.418;7.286;2022-12-18T06:14:09;2.60;;;1.80;;
55539;SDS011;41384;51.418;7.286;2022-12-18T06:16:34;1.83;;;1.52;;
55539;SDS011;41384;51.418;7.286;2022-12-18T06:19:00;2.67;;;1.80;;
55539;SDS011;41384;51.418;7.286;2022-12-18T06:21:28;2.55;;;1.70;;
55539;SDS011;41384;51.418;7.286;2022-12-18T06:23:54;3.35;;;1.95;;
55539;SDS011;41384;51.418;7.286;2022-12-18T06:26:19;4.25;;;2.53;;
55539;SDS011;41384;51.418;7.286;2022-12-18T06:28:44;2.50;;;2.10;;
55539;SDS011;41384;51.418;7.286;2022-12-18T06:31:10;4.15;;;2.30;;
55539;SDS011;41384;51.418;7.286;2022-12-18T06:33:36;3.22;;;2.25;;
55539;SDS011;41384;51.418;7.286;2022-12-18T06:36:09;3.75;;;2.35;;
55539;SDS011;41384;51.418;7.286;2022-12-18T06:38:36;4.22;;;2.53;;
55539;SDS011;41384;51.418;7.286;2022-12-18T06:41:07;3.15;;;2.25;;
55539;SDS011;41384;51.418;7.286;2022-12-18T06:43:36;6.20;;;2.35;;
55539;SDS011;41384;51.418;7.286;2022-12-18T06:46:02;3.83;;;2.17;;
55539;SDS011;41384;51.418;7.286;2022-12-18T06:48:28;4.03;;;2.28;;
55539;SDS011;41384;51.418;7.286;2022-12-18T06:50:53;5.05;;;2.13;;
55539;SDS011;41384;51.418;7.286;2022-12-18T06:53:19;4.15;;;2.28;;
55539;SDS011;41384;51.418;7.286;2022-12-18T06:55:44;6.03;;;2.30;;
55539;SDS011;41384;51.418;7.286;2022-12-18T06:58:09;2.92;;;2.10;;
55539;SDS011;41384;51.418;7.286;2022-12-18T07:00:35;4.57;;;2.10;;
55539;SDS011;41384;51.418;7.286;2022-12-18T07:03:00;2.33;;;1.90;;
55539;SDS011;41384;51.418;7.286;2022-12-18T07:05:25;4.57;;;2.47;;
55539;SDS011;41384;51.418;7.286;2022-12-18T07:07:51;4.35;;;2.15;;
55539;SDS011;41384;51.418;7.286;2022-12-18T07:10:16;3.33;;;1.90;;
55539;SDS011;41384;51.418;7.286;2022-12-18T07:12:41;4.18;;;2.63;;
55539;SDS011;41384;51.418;7.286;2022-12-18T07:15:06;5.32;;;2.35;;
55539;SDS011;41384;51.418;7.286;2022-12-18T07:17:32;4.45;;;2.35;;
55539;SDS011;41384;51.418;7.286;2022-12-18T07:19:57;4.07;;;2.60;;
55539;SDS011;41384;51.418;7.286;2022-12-18T07:22:23;4.88;;;2.47;;
55539;SDS011;41384;51.418;7.286;2022-12-18T07:24:50;6.13;;;2.33;;
55539;SDS011;41384;51.418;7.286;2022-12-18T07:27:15;4.18;;;2.35;;
55539;SDS011;41384;51.418;7.286;2022-12-18T07:29:41;3.95;;;2.33;;
55539;SDS011;41384;51.418;7.286;2022-12-18T07:32:06;3.08;;;2.35;;
55539;SDS011;41384;51.418;7.286;2022-12-18T07:34:32;5.32;;;2.60;;
55539;SDS011;41384;51.418;7.286;2022-12-18T07:36:57;3.00;;;2.00;;
55539;SDS011;41384;51.418;7.286;2022-12-18T07:39:22;6.35;;;2.08;;
55539;SDS011;41384;51.418;7.286;2022-12-18T07:41:48;4.95;;;2.38;;
55539;SDS011;41384;51.418;7.286;2022-12-18T07:44:33;3.50;;;1.88;;
55539;SDS011;41384;51.418;7.286;2022-12-18T07:46:58;4.45;;;2.10;;
55539;SDS011;41384;51.418;7.286;2022-12-18T07:49:23;3.47;;;2.08;;
55539;SDS011;41384;51.418;7.286;2022-12-18T07:51:49;5.07;;;2.38;;
55539;SDS011;41384;51.418;7.286;2022-12-18T07:54:14;3.80;;;2.47;;
55539;SDS011;41384;51.418;7.286;2022-12-18T07:56:39;4.30;;;2.22;;
55539;SDS011;41384;51.418;7.286;2022-12-18T07:59:05;4.20;;;2.17;;
55539;SDS011;41384;51.418;7.286;2022-12-18T08:01:30;2.53;;;2.05;;
55539;SDS011;41384;51.418;7.286;2022-12-18T08:03:56;5.63;;;2.40;;
55539;SDS011;41384;51.418;7.286;2022-12-18T08:06:22;6.93;;;3.78;;
55539;SDS011;41384;51.418;7.286;2022-12-18T08:08:48;7.40;;;3.85;;
55539;SDS011;41384;51.418;7.286;2022-12-18T08:11:13;5.57;;;3.38;;
55539;SDS011;41384;51.418;7.286;2022-12-18T08:13:38;4.38;;;2.60;;
55539;SDS011;41384;51.418;7.286;2022-12-18T08:16:04;4.63;;;2.55;;
55539;SDS011;41384;51.418;7.286;2022-12-18T08:18:34;3.97;;;2.20;;
55539;SDS011;41384;51.418;7.286;2022-12-18T08:21:10;2.22;;;1.70;;
55539;SDS011;41384;51.418;7.286;2022-12-18T08:23:41;2.50;;;1.85;;
55539;SDS011;41384;51.418;7.286;2022-12-18T08:26:07;3.97;;;2.10;;
55539;SDS011;41384;51.418;7.286;2022-12-18T08:28:32;2.38;;;1.80;;
55539;SDS011;41384;51.418;7.286;2022-12-18T08:30:58;3.38;;;1.60;;
55539;SDS011;41384;51.418;7.286;2022-12-18T08:33:23;3.53;;;1.35;;
55539;SDS011;41384;51.418;7.286;2022-12-18T08:35:49;3.63;;;1.88;;
55539;SDS011;41384;51.418;7.286;2022-12-18T08:38:14;3.85;;;1.80;;
55539;SDS011;41384;51.418;7.286;2022-12-18T08:40:39;2.85;;;1.70;;
55539;SDS011;41384;51.418;7.286;2022-12-18T08:43:04;3.90;;;2.08;;
55539;SDS011;41384;51.418;7.286;2022-12-18T08:45:48;2.92;;;2.10;;
55539;SDS011;41384;51.418;7.286;2022-12-18T08:48:14;4.40;;;2.00;;
55539;SDS011;41384;51.418;7.286;2022-12-18T08:50:40;5.68;;;1.70;;
55539;SDS011;41384;51.418;7.286;2022-12-18T08:53:05;3.70;;;1.73;;
55539;SDS011;41384;51.418;7.286;2022-12-18T08:55:30;2.63;;;1.83;;
55539;SDS011;41384;51.418;7.286;2022-12-18T08:57:56;1.95;;;1.48;;
55539;SDS011;41384;51.418;7.286;2022-12-18T09:00:21;5.05;;;2.10;;
55539;SDS011;41384;51.418;7.286;2022-12-18T09:02:46;3.13;;;1.73;;
55539;SDS011;41384;51.418;7.286;2022-12-18T09:05:12;4.18;;;2.30;;
55539;SDS011;41384;51.418;7.286;2022-12-18T09:07:37;3.00;;;2.00;;
55539;SDS011;41384;51.418;7.286;2022-12-18T09:10:02;4.07;;;2.33;;
55539;SDS011;41384;51.418;7.286;2022-12-18T09:12:28;5.85;;;2.35;;
55539;SDS011;41384;51.418;7.286;2022-12-18T09:14:54;4.50;;;2.40;;
55539;SDS011;41384;51.418;7.286;2022-12-18T09:17:19;3.25;;;1.90;;
55539;SDS011;41384;51.418;7.286;2022-12-18T09:19:44;2.45;;;2.00;;
55539;SDS011;41384;51.418;7.286;2022-12-18T09:22:10;3.35;;;1.83;;
55539;SDS011;41384;51.418;7.286;2022-12-18T09:24:35;4.25;;;2.05;;
55539;SDS011;41384;51.418;7.286;2022-12-18T09:27:00;3.05;;;1.58;;
55539;SDS011;41384;51.418;7.286;2022-12-18T09:29:26;4.25;;;2.20;;
55539;SDS011;41384;51.418;7.286;2022-12-18T09:31:51;3.95;;;1.92;;
55539;SDS011;41384;51.418;7.286;2022-12-18T09:34:16;3.42;;;1.90;;
55539;SDS011;41384;51.418;7.286;2022-12-18T09:36:42;4.28;;;2.05;;
55539;SDS011;41384;51.418;7.286;2022-12-18T09:39:07;3.00;;;1.98;;
55539;SDS011;41384;51.418;7.286;2022-12-18T09:41:39;3.72;;;1.92;;
55539;SDS011;41384;51.418;7.286;2022-12-18T09:44:28;3.75;;;2.15;;
55539;SDS011;41384;51.418;7.286;2022-12-18T09:47:07;4.65;;;2.05;;
55539;SDS011;41384;51.418;7.286;2022-12-18T09:49:38;4.03;;;2.10;;
55539;SDS011;41384;51.418;7.286;2022-12-18T09:52:11;3.50;;;2.53;;
55539;SDS011;41384;51.418;7.286;2022-12-18T09:54:46;2.17;;;1.60;;
55539;SDS011;41384;51.418;7.286;2022-12-18T09:57:17;5.25;;;2.65;;
55539;SDS011;41384;51.418;7.286;2022-12-18T09:59:48;2.90;;;1.67;;
55539;SDS011;41384;51.418;7.286;2022-12-18T10:02:19;2.65;;;1.80;;
55539;SDS011;41384;51.418;7.286;2022-12-18T10:04:49;4.07;;;2.33;;
55539;SDS011;41384;51.418;7.286;2022-12-18T10:07:35;4.10;;;1.80;;
55539;SDS011;41384;51.418;7.286;2022-12-18T10:10:14;2.97;;;1.75;;
55539;SDS011;41384;51.418;7.286;2022-12-18T10:13:04;3.28;;;2.08;;
55539;SDS011;41384;51.418;7.286;2022-12-18T10:21:12;4.00;;;1.98;;
55539;SDS011;41384;51.418;7.286;2022-12-18T10:26:21;5.00;;;2.40;;
55539;SDS011;41384;51.418;7.286;2022-12-18T10:28:46;3.47;;;1.95;;
55539;SDS011;41384;51.418;7.286;2022-12-18T10:31:14;3.38;;;2.00;;
55539;SDS011;41384;51.418;7.286;2022-12-18T10:33:42;3.78;;;1.92;;
55539;SDS011;41384;51.418;7.286;2022-12-18T10:36:08;6.07;;;1.98;;
55539;SDS011;41384;51.418;7.286;2022-12-18T10:38:33;4.32;;;2.20;;
55539;SDS011;41384;51.418;7.286;2022-12-18T10:41:00;2.72;;;2.05;;
55539;SDS011;41384;51.418;7.286;2022-12-18T10:43:38;3.95;;;2.10;;
55539;SDS011;41384;51.418;7.286;2022-12-18T10:48:33;3.22;;;2.20;;
55539;SDS011;41384;51.418;7.286;2022-12-18T10:51:36;5.22;;;2.72;;
55539;SDS011;41384;51.418;7.286;2022-12-18T10:54:03;2.93;;;2.13;;
55539;SDS011;41384;51.418;7.286;2022-12-18T10:56:31;3.28;;;2.20;;
55539;SDS011;41384;51.418;7.286;2022-12-18T10:59:03;3.97;;;2.10;;
55539;SDS011;41384;51.418;7.286;2022-12-18T11:01:52;4.05;;;2.80;;
55539;SDS011;41384;51.418;7.286;2022-12-18T11:04:26;3.35;;;2.28;;
55539;SDS011;41384;51.418;7.286;2022-12-18T11:07:06;3.80;;;2.78;;
55539;SDS011;41384;51.418;7.286;2022-12-18T11:09:37;2.80;;;1.77;;
55539;SDS011;41384;51.418;7.286;2022-12-18T11:12:05;4.43;;;1.98;;
55539;SDS011;41384;51.418;7.286;2022-12-18T11:17:16;4.22;;;1.90;;
55539;SDS011;41384;51.418;7.286;2022-12-18T11:19:44;2.55;;;2.03;;
55539;SDS011;41384;51.418;7.286;2022-12-18T11:22:18;4.18;;;2.22;;
55539;SDS011;41384;51.418;7.286;2022-12-18T11:24:52;3.10;;;2.30;;
55539;SDS011;41384;51.418;7.286;2022-12-18T11:27:20;5.30;;;2.55;;
55539;SDS011;41384;51.418;7.286;2022-12-18T11:29:45;4.38;;;2.20;;
55539;SDS011;41384;51.418;7.286;2022-12-18T11:34:39;3.80;;;2.30;;
55539;SDS011;41384;51.418;7.286;2022-12-18T11:37:10;4.68;;;2.60;;
55539;SDS011;41384;51.418;7.286;2022-12-18T11:39:40;7.93;;;3.47;;
55539;SDS011;41384;51.418;7.286;2022-12-18T11:42:12;4.90;;;2.77;;
55539;SDS011;41384;51.418;7.286;2022-12-18T11:47:52;4.30;;;2.25;;
55539;SDS011;41384;51.418;7.286;2022-12-18T11:53:02;4.20;;;2.60;;
55539;SDS011;41384;51.418;7.286;2022-12-18T12:06:23;5.50;;;2.67;;
55539;SDS011;41384;51.418;7.286;2022-12-18T12:09:23;2.45;;;1.92;;
55539;SDS011;41384;51.418;7.286;2022-12-18T12:15:13;4.53;;;2.67;;
55539;SDS011;41384;51.418;7.286;2022-12-18T12:20:41;4.32;;;2.53;;
55539;SDS011;41384;51.418;7.286;2022-12-18T12:31:28;4.32;;;2.70;;
55539;SDS011;41384;51.418;7.286;2022-12-18T12:36:59;3.53;;;2.35;;
55539;SDS011;41384;51.418;7.286;2022-12-18T12:39:35;4.57;;;2.63;;
55539;SDS011;41384;51.418;7.286;2022-12-18T12:42:06;7.15;;;3.15;;
55539;SDS011;41384;51.418;7.286;2022-12-18T12:45:28;4.80;;;2.85;;
55539;SDS011;41384;51.418;7.286;2022-12-18T12:48:00;4.95;;;2.95;;
55539;SDS011;41384;51.418;7.286;2022-12-18T12:50:27;3.33;;;2.30;;
55539;SDS011;41384;51.418;7.286;2022-12-18T12:52:53;5.13;;;2.53;;
55539;SDS011;41384;51.418;7.286;2022-12-18T12:55:22;3.63;;;2.75;;
55539;SDS011;41384;51.418;7.286;2022-12-18T13:01:12;5.45;;;2.88;;
55539;SDS011;41384;51.418;7.286;2022-12-18T13:06:19;4.55;;;2.55;;
55539;SDS011;41384;51.418;7.286;2022-12-18T13:11:35;6.63;;;3.25;;
55539;SDS011;41384;51.418;7.286;2022-12-18T13:14:23;6.50;;;3.38;;
55539;SDS011;41384;51.418;7.286;2022-12-18T13:17:13;7.20;;;3.63;;
55539;SDS011;41384;51.418;7.286;2022-12-18T13:19:43;7.60;;;4.35;;
55539;SDS011;41384;51.418;7.286;2022-12-18T13:22:22;7.05;;;3.50;;
55539;SDS011;41384;51.418;7.286;2022-12-18T13:24:49;5.75;;;3.78;;
55539;SDS011;41384;51.418;7.286;2022-12-18T13:30:33;9.02;;;4.57;;
55539;SDS011;41384;51.418;7.286;2022-12-18T13:33:30;11.00;;;5.25;;
55539;SDS011;41384;51.418;7.286;2022-12-18T13:36:01;12.43;;;5.38;;
55539;SDS011;41384;51.418;7.286;2022-12-18T13:38:34;11.75;;;5.25;;
55539;SDS011;41384;51.418;7.286;2022-12-18T13:41:01;6.32;;;4.30;;
55539;SDS011;41384;51.418;7.286;2022-12-18T13:43:42;9.75;;;4.57;;
55539;SDS011;41384;51.418;7.286;2022-12-18T13:51:39;8.15;;;4.30;;
55539;SDS011;41384;51.418;7.286;2022-12-18T13:56:45;10.57;;;5.13;;
55539;SDS011;41384;51.418;7.286;2022-12-18T13:59:17;9.45;;;4.90;;
55539;SDS011;41384;51.418;7.286;2022-12-18T14:01:46;10.60;;;5.82;;
55539;SDS011;41384;51.418;7.286;2022-12-18T14:04:20;8.25;;;4.28;;
55539;SDS011;41384;51.418;7.286;2022-12-18T14:06:55;9.88;;;5.22;;
55539;SDS011;41384;51.418;7.286;2022-12-18T14:11:50;9.07;;;4.57;;
55539;SDS011;41384;51.418;7.286;2022-12-18T14:14:17;6.75;;;4.88;;
55539;SDS011;41384;51.418;7.286;2022-12-18T14:16:44;7.45;;;4.43;;
55539;SDS011;41384;51.418;7.286;2022-12-18T14:19:15;12.13;;;5.10;;
55539;SDS011;41384;51.418;7.286;2022-12-18T14:21:46;8.98;;;4.63;;
55539;SDS011;41384;51.418;7.286;2022-12-18T14:26:39;7.95;;;4.53;;
55539;SDS011;41384;51.418;7.286;2022-12-18T14:34:37;11.25;;;5.10;;
55539;SDS011;41384;51.418;7.286;2022-12-18T14:37:03;10.10;;;5.13;;
55539;SDS011;41384;51.418;7.286;2022-12-18T14:39:29;11.85;;;6.05;;
55539;SDS011;41384;51.418;7.286;2022-12-18T14:41:54;10.57;;;5.75;;
55539;SDS011;41384;51.418;7.286;2022-12-18T14:44:19;10.30;;;5.90;;
55539;SDS011;41384;51.418;7.286;2022-12-18T14:46:46;10.75;;;5.30;;
55539;SDS011;41384;51.418;7.286;2022-12-18T14:49:21;11.18;;;5.38;;
55539;SDS011;41384;51.418;7.286;2022-12-18T14:51:51;12.00;;;5.65;;
55539;SDS011;41384;51.418;7.286;2022-12-18T14:54:19;11.85;;;5.97;;
55539;SDS011;41384;51.418;7.286;2022-12-18T14:56:49;9.40;;;5.40;;
55539;SDS011;41384;51.418;7.286;2022-12-18T14:59:25;10.52;;;6.07;;
55539;SDS011;41384;51.418;7.286;2022-12-18T15:01:57;11.95;;;5.53;;
55539;SDS011;41384;51.418;7.286;2022-12-18T15:04:29;11.57;;;5.63;;
55539;SDS011;41384;51.418;7.286;2022-12-18T15:12:44;14.32;;;7.43;;
55539;SDS011;41384;51.418;7.286;2022-12-18T15:18:00;11.43;;;5.85;;
55539;SDS011;41384;51.418;7.286;2022-12-18T15:20:30;11.93;;;5.85;;
55539;SDS011;41384;51.418;7.286;2022-12-18T15:22:56;11.73;;;6.68;;
55539;SDS011;41384;51.418;7.286;2022-12-18T15:25:31;14.70;;;6.95;;
55539;SDS011;41384;51.418;7.286;2022-12-18T15:28:01;12.80;;;6.85;;
55539;SDS011;41384;51.418;7.286;2022-12-18T15:30:26;12.93;;;5.68;;
55539;SDS011;41384;51.418;7.286;2022-12-18T15:32:52;12.55;;;6.72;;
55539;SDS011;41384;51.418;7.286;2022-12-18T15:35:55;11.52;;;7.00;;
55539;SDS011;41384;51.418;7.286;2022-12-18T15:38:21;11.25;;;6.00;;
55539;SDS011;41384;51.418;7.286;2022-12-18T15:40:47;13.85;;;7.30;;
55539;SDS011;41384;51.418;7.286;2022-12-18T15:43:12;13.98;;;7.45;;
55539;SDS011;41384;51.418;7.286;2022-12-18T15:45:56;12.68;;;5.72;;
55539;SDS011;41384;51.418;7.286;2022-12-18T15:48:22;16.88;;;8.18;;
55539;SDS011;41384;51.418;7.286;2022-12-18T15:50:49;16.92;;;7.13;;
55539;SDS011;41384;51.418;7.286;2022-12-18T15:53:15;13.88;;;7.18;;
55539;SDS011;41384;51.418;7.286;2022-12-18T15:55:41;16.85;;;7.75;;
55539;SDS011;41384;51.418;7.286;2022-12-18T15:58:25;13.98;;;7.47;;
55539;SDS011;41384;51.418;7.286;2022-12-18T16:00:50;13.48;;;6.97;;
55539;SDS011;41384;51.418;7.286;2022-12-18T16:03:16;15.10;;;7.72;;
55539;SDS011;41384;51.418;7.286;2022-12-18T16:05:41;15.63;;;7.25;;
55539;SDS011;41384;51.418;7.286;2022-12-18T16:08:06;17.00;;;7.47;;
55539;SDS011;41384;51.418;7.286;2022-12-18T16:10:32;13.20;;;7.72;;
55539;SDS011;41384;51.418;7.286;2022-12-18T16:12:57;17.08;;;7.65;;
55539;SDS011;41384;51.418;7.286;2022-12-18T16:15:22;17.08;;;8.18;;
55539;SDS011;41384;51.418;7.286;2022-12-18T16:17:48;12.07;;;6.43;;
55539;SDS011;41384;51.418;7.286;2022-12-18T16:22:40;14.93;;;6.95;;
55539;SDS011;41384;51.418;7.286;2022-12-18T16:25:08;16.25;;;7.97;;
55539;SDS011;41384;51.418;7.286;2022-12-18T16:27:41;17.17;;;7.35;;
55539;SDS011;41384;51.418;7.286;2022-12-18T16:30:06;14.20;;;7.38;;
55539;SDS011;41384;51.418;7.286;2022-12-18T16:32:36;16.63;;;8.27;;
55539;SDS011;41384;51.418;7.286;2022-12-18T16:35:02;14.95;;;8.13;;
55539;SDS011;41384;51.418;7.286;2022-12-18T16:37:27;14.52;;;8.02;;
55539;SDS011;41384;51.418;7.286;2022-12-18T16:39:52;17.17;;;9.45;;
55539;SDS011;41384;51.418;7.286;2022-12-18T16:42:18;22.92;;;8.13;;
55539;SDS011;41384;51.418;7.286;2022-12-18T16:44:45;18.80;;;8.77;;
55539;SDS011;41384;51.418;7.286;2022-12-18T16:47:12;17.88;;;9.00;;
55539;SDS011;41384;51.418;7.286;2022-12-18T16:49:37;19.23;;;8.68;;
55539;SDS011;41384;51.418;7.286;2022-12-18T16:52:06;18.90;;;10.02;;
55539;SDS011;41384;51.418;7.286;2022-12-18T16:54:32;16.00;;;8.38;;